Ashland, Mississippi
Current Conditions -  °F | °C
As of 2:15 PM on Sunday 25 Jan 2015 (Local Time) from KCRX Reporting Station
Few Clouds Few Clouds  
Wind Chill: 14°   Ceiling: Unl
Heat Index: 14°   Visibility: 10mi
Dew Point:   Wind: 16mph
Humidity: 55%   Direction: 230°SW
Pressure: 29.66"   Gusts: 23mph
Location:  34.83°N, 89.18°W
Report Text: KCRX 252015Z AUTO 23014G20KT 10SM FEW065 14/05 A2966 RMK AO2
Loading
Personal Weather Stations






























Interactive Weather Map New forecast layout! Learn more

10-Day Weather Forecast

Advertisements
Track Severe Weather on mobile